createdAt,value
2023-04-19T00:01:39.110Z,3.45
2023-04-19T00:04:06.420Z,3.33
2023-04-19T00:06:34.423Z,3.67
2023-04-19T00:09:01.178Z,3.27
2023-04-19T00:11:28.344Z,3.42
2023-04-19T00:13:58.937Z,3.55
2023-04-19T00:16:25.935Z,3.78
2023-04-19T00:18:54.454Z,3.97
2023-04-19T00:21:21.402Z,3.70
2023-04-19T00:23:48.244Z,3.65
2023-04-19T00:26:16.055Z,3.85
2023-04-19T00:28:48.936Z,3.28
2023-04-19T00:31:16.009Z,4.05
2023-04-19T00:33:42.757Z,4.00
2023-04-19T00:36:09.968Z,3.97
2023-04-19T00:38:36.928Z,4.38
2023-04-19T00:41:03.949Z,4.03
2023-04-19T00:43:31.055Z,3.95
2023-04-19T00:46:02.503Z,4.30
2023-04-19T00:48:32.472Z,4.68
2023-04-19T00:51:01.523Z,4.10
2023-04-19T00:53:28.456Z,4.43
2023-04-19T00:56:02.260Z,4.07
2023-04-19T00:58:31.912Z,3.60
2023-04-19T01:00:59.113Z,3.50
2023-04-19T01:03:26.380Z,4.38
2023-04-19T01:05:53.917Z,3.92
2023-04-19T01:08:45.624Z,4.38
2023-04-19T01:11:37.519Z,3.70
2023-04-19T01:14:29.785Z,4.03
2023-04-19T01:17:22.105Z,4.13
2023-04-19T01:19:49.363Z,4.35
2023-04-19T01:22:21.378Z,4.32
2023-04-19T01:24:52.701Z,4.60
2023-04-19T01:27:19.701Z,4.18
2023-04-19T01:29:47.101Z,4.55
2023-04-19T01:32:15.611Z,4.55
2023-04-19T01:34:42.394Z,4.60
2023-04-19T01:37:09.965Z,4.53
2023-04-19T01:39:37.280Z,4.82
2023-04-19T01:42:04.257Z,4.80
2023-04-19T01:44:31.914Z,5.13
2023-04-19T01:47:03.602Z,4.47
2023-04-19T01:49:30.855Z,4.80
2023-04-19T01:51:57.872Z,4.72
2023-04-19T01:54:25.291Z,5.55
2023-04-19T01:56:52.983Z,5.25
2023-04-19T01:59:23.095Z,5.00
2023-04-19T02:01:51.472Z,5.13
2023-04-19T02:04:21.192Z,5.10
2023-04-19T02:06:52.491Z,5.28
2023-04-19T02:09:19.357Z,5.28
2023-04-19T02:11:47.106Z,5.22
2023-04-19T02:14:15.561Z,4.63
2023-04-19T02:16:42.478Z,5.15
2023-04-19T02:19:10.654Z,5.80
2023-04-19T02:21:38.869Z,5.60
2023-04-19T02:24:05.977Z,5.80
2023-04-19T02:26:33.080Z,5.93
2023-04-19T02:29:00.098Z,5.28
2023-04-19T02:31:27.063Z,5.55
2023-04-19T02:33:54.399Z,5.75
2023-04-19T02:36:23.076Z,5.15
2023-04-19T02:41:41.468Z,5.78
2023-04-19T02:44:08.338Z,5.43
2023-04-19T02:46:35.597Z,5.60
2023-04-19T02:49:02.842Z,5.72
2023-04-19T02:51:30.747Z,5.63
2023-04-19T02:53:57.986Z,6.30
2023-04-19T02:56:25.001Z,5.65
2023-04-19T02:58:54.670Z,5.25
2023-04-19T03:01:21.493Z,6.60
2023-04-19T03:03:50.855Z,5.67
2023-04-19T03:06:18.529Z,6.18
2023-04-19T03:08:45.929Z,6.50
2023-04-19T03:11:15.818Z,6.50
2023-04-19T03:13:44.416Z,5.70
2023-04-19T03:16:13.065Z,5.67
2023-04-19T03:18:42.431Z,5.78
2023-04-19T03:21:12.230Z,6.65
2023-04-19T03:23:50.925Z,6.68
2023-04-19T03:26:18.653Z,6.35
2023-04-19T03:28:47.607Z,6.73
2023-04-19T03:31:35.521Z,5.82
2023-04-19T03:34:04.310Z,6.93
2023-04-19T03:36:39.350Z,6.15
2023-04-19T03:39:08.240Z,6.38
2023-04-19T03:41:37.482Z,6.10
2023-04-19T03:44:14.828Z,6.22
2023-04-19T03:46:44.309Z,6.70
2023-04-19T03:49:11.249Z,6.55
2023-04-19T03:51:39.532Z,7.03
2023-04-19T03:54:09.688Z,6.80
2023-04-19T03:56:37.787Z,7.18
2023-04-19T03:59:06.399Z,6.72
2023-04-19T04:01:37.135Z,6.90
2023-04-19T04:04:05.303Z,6.18
2023-04-19T04:06:33.627Z,6.20
2023-04-19T04:09:01.583Z,6.53
2023-04-19T04:14:20.181Z,6.25
2023-04-19T04:16:47.238Z,6.32
2023-04-19T04:19:16.338Z,6.40
2023-04-19T04:21:43.515Z,7.07
2023-04-19T04:24:11.447Z,6.85
2023-04-19T04:26:57.400Z,6.80
2023-04-19T04:29:28.937Z,6.30
2023-04-19T04:31:59.187Z,6.77
2023-04-19T04:34:31.430Z,6.75
2023-04-19T04:37:08.538Z,6.68
2023-04-19T04:39:36.534Z,6.45
2023-04-19T04:42:03.353Z,7.15
2023-04-19T04:44:32.480Z,7.30
2023-04-19T04:46:59.424Z,6.75
2023-04-19T04:49:30.191Z,7.53
2023-04-19T04:51:58.696Z,7.50
2023-04-19T04:54:27.662Z,6.95
2023-04-19T04:56:56.413Z,6.80
2023-04-19T04:59:23.499Z,7.10
2023-04-19T05:01:51.740Z,6.85
2023-04-19T05:04:19.636Z,7.18
2023-04-19T05:06:47.061Z,7.72
2023-04-19T05:09:19.638Z,7.50
2023-04-19T05:11:47.562Z,6.70
2023-04-19T05:14:14.598Z,7.28
2023-04-19T05:16:43.025Z,6.90
2023-04-19T05:22:06.554Z,6.60
2023-04-19T05:24:40.097Z,7.28
2023-04-19T05:27:10.493Z,7.13
2023-04-19T05:29:37.640Z,7.72
2023-04-19T05:32:06.054Z,7.47
2023-04-19T05:34:36.798Z,7.03
2023-04-19T05:37:06.575Z,7.50
2023-04-19T05:39:34.657Z,6.78
2023-04-19T05:42:01.697Z,7.05
2023-04-19T05:44:29.592Z,7.38
2023-04-19T05:46:56.469Z,7.70
2023-04-19T05:49:50.638Z,7.82
2023-04-19T05:52:28.618Z,7.47
2023-04-19T05:54:59.742Z,7.30
2023-04-19T05:57:27.950Z,7.00
2023-04-19T05:59:55.108Z,7.03
2023-04-19T06:02:25.745Z,6.50
2023-04-19T06:04:54.158Z,7.30
2023-04-19T06:07:31.722Z,7.65
2023-04-19T06:10:00.054Z,7.60
2023-04-19T06:12:27.000Z,7.43
2023-04-19T06:14:55.009Z,6.95
2023-04-19T06:17:22.412Z,7.07
2023-04-19T06:19:53.361Z,7.50
2023-04-19T06:22:20.755Z,7.22
2023-04-19T06:24:48.626Z,7.40
2023-04-19T06:27:17.276Z,7.13
2023-04-19T06:29:44.568Z,7.50
2023-04-19T06:32:11.571Z,7.82
2023-04-19T06:34:38.365Z,7.40
2023-04-19T06:37:08.498Z,7.27
2023-04-19T06:39:35.394Z,6.70
2023-04-19T06:42:02.254Z,7.38
2023-04-19T06:44:31.483Z,7.05
2023-04-19T06:46:58.988Z,7.55
2023-04-19T06:49:26.548Z,6.30
2023-04-19T06:51:53.535Z,6.93
2023-04-19T06:54:20.462Z,6.60
2023-04-19T06:56:50.007Z,7.22
2023-04-19T06:59:19.288Z,6.97
2023-04-19T07:01:47.834Z,6.97
2023-04-19T07:04:16.031Z,6.72
2023-04-19T07:06:43.118Z,7.47
2023-04-19T07:09:36.499Z,6.80
2023-04-19T07:12:03.959Z,7.40
2023-04-19T07:14:31.572Z,7.10
2023-04-19T07:16:58.888Z,6.93
2023-04-19T07:19:26.516Z,7.32
2023-04-19T07:21:54.073Z,6.95
2023-04-19T07:24:21.476Z,6.70
2023-04-19T07:26:48.314Z,6.90
2023-04-19T07:29:15.555Z,6.82
2023-04-19T07:31:42.978Z,6.90
2023-04-19T07:34:09.967Z,5.95
2023-04-19T07:36:36.872Z,5.75
2023-04-19T07:39:03.908Z,4.80
2023-04-19T07:41:36.300Z,4.95
2023-04-19T07:44:05.035Z,5.30
2023-04-19T07:46:32.138Z,4.38
2023-04-19T07:48:59.191Z,4.88
2023-04-19T07:51:51.444Z,4.60
2023-04-19T07:54:18.522Z,4.40
2023-04-19T07:56:45.591Z,4.60
2023-04-19T07:59:12.455Z,4.07
2023-04-19T08:02:04.649Z,3.55
2023-04-19T08:04:32.219Z,3.50
2023-04-19T08:06:59.127Z,4.95
2023-04-19T08:09:28.593Z,3.90
2023-04-19T08:11:55.268Z,3.58
2023-04-19T08:14:34.618Z,3.50
2023-04-19T08:19:39.864Z,3.67
2023-04-19T08:22:07.808Z,3.83
2023-04-19T08:24:34.984Z,4.07
2023-04-19T08:27:01.750Z,3.80
2023-04-19T08:29:32.653Z,3.70
2023-04-19T08:32:00.004Z,4.28
2023-04-19T08:34:26.867Z,4.55
2023-04-19T08:37:03.446Z,4.07
2023-04-19T08:39:35.529Z,4.25
2023-04-19T08:42:15.514Z,4.23
2023-04-19T08:45:13.774Z,3.78
2023-04-19T08:50:24.619Z,3.72
2023-04-19T08:53:12.276Z,3.70
2023-04-19T08:56:08.751Z,4.50
2023-04-19T08:58:57.086Z,3.85
2023-04-19T09:01:35.490Z,3.97
2023-04-19T09:04:34.029Z,4.60
2023-04-19T09:06:55.934Z,4.63
2023-04-19T09:10:05.541Z,4.03
2023-04-19T09:12:32.957Z,3.95
2023-04-19T09:15:01.689Z,4.20
2023-04-19T09:17:30.281Z,3.72
2023-04-19T09:19:58.917Z,3.25
2023-04-19T09:22:26.053Z,3.00
2023-04-19T09:27:31.467Z,2.88
2023-04-19T09:30:01.884Z,2.40
2023-04-19T09:32:32.732Z,2.50
2023-04-19T09:35:43.376Z,2.47
2023-04-19T09:38:12.547Z,2.33
2023-04-19T09:40:40.548Z,2.38
2023-04-19T09:43:32.994Z,2.65
2023-04-19T09:45:55.054Z,2.45
2023-04-19T09:48:23.129Z,2.50
2023-04-19T09:51:05.886Z,2.13
2023-04-19T09:53:34.880Z,2.63
2023-04-19T09:56:03.420Z,2.35
2023-04-19T09:58:46.335Z,1.95
2023-04-19T10:01:20.064Z,2.20
2023-04-19T10:03:49.789Z,1.98
2023-04-19T10:08:50.510Z,2.67
2023-04-19T10:11:18.836Z,2.50
2023-04-19T10:13:49.137Z,2.40
2023-04-19T10:16:20.238Z,2.58
2023-04-19T10:18:50.770Z,2.40
2023-04-19T10:21:19.842Z,2.00
2023-04-19T10:23:47.719Z,2.00
2023-04-19T10:26:14.471Z,2.23
2023-04-19T10:28:42.606Z,1.77
2023-04-19T10:31:12.669Z,1.67
2023-04-19T10:33:40.551Z,1.90
2023-04-19T10:36:14.220Z,2.20
2023-04-19T10:38:43.131Z,2.20
2023-04-19T10:41:10.738Z,2.00
2023-04-19T10:44:08.515Z,1.98
2023-04-19T10:46:35.319Z,1.55
2023-04-19T10:49:04.162Z,2.25
2023-04-19T10:51:36.393Z,2.07
2023-04-19T10:54:05.809Z,2.10
2023-04-19T10:56:35.332Z,2.28
2023-04-19T10:59:02.284Z,2.00
2023-04-19T11:01:53.414Z,1.85
2023-04-19T11:04:33.728Z,2.20
2023-04-19T11:07:03.521Z,2.35
2023-04-19T11:09:38.456Z,2.80
2023-04-19T11:12:06.442Z,3.25
2023-04-19T11:14:36.532Z,2.80
2023-04-19T11:17:14.874Z,2.80
2023-04-19T11:19:45.619Z,3.10
2023-04-19T11:22:12.408Z,2.45
2023-04-19T11:24:46.633Z,2.90
2023-04-19T11:27:13.507Z,2.88
2023-04-19T11:29:40.211Z,2.97
2023-04-19T11:32:08.598Z,2.70
2023-04-19T11:34:39.290Z,2.63
2023-04-19T11:37:09.750Z,2.63
2023-04-19T11:39:45.296Z,2.85
2023-04-19T11:42:20.555Z,2.43
2023-04-19T11:44:55.009Z,2.63
2023-04-19T11:47:24.437Z,2.25
2023-04-19T11:49:51.202Z,2.40
2023-04-19T11:52:27.568Z,2.42
2023-04-19T11:54:54.538Z,2.20
2023-04-19T11:57:34.486Z,2.40
2023-04-19T12:00:07.226Z,1.90
2023-04-19T12:02:43.544Z,2.50
2023-04-19T12:05:15.548Z,1.92
2023-04-19T12:08:18.565Z,1.60
2023-04-19T12:11:10.401Z,2.10
2023-04-19T12:13:37.676Z,1.80
2023-04-19T12:16:05.445Z,1.70
2023-04-19T12:18:47.693Z,1.70
2023-04-19T12:21:28.429Z,1.40
2023-04-19T12:23:57.542Z,1.02
2023-04-19T12:26:26.473Z,1.50
2023-04-19T12:28:54.336Z,1.35
2023-04-19T12:31:24.555Z,1.52
2023-04-19T12:33:51.427Z,1.80
2023-04-19T12:36:18.418Z,1.73
2023-04-19T12:38:48.577Z,1.73
2023-04-19T12:41:15.364Z,1.48
2023-04-19T12:43:45.549Z,1.55
2023-04-19T12:46:37.724Z,1.63
2023-04-19T12:51:57.589Z,1.42
2023-04-19T12:54:24.392Z,1.58
2023-04-19T12:56:53.519Z,1.73
2023-04-19T12:59:20.217Z,1.97
2023-04-19T13:01:48.579Z,1.80
2023-04-19T13:04:16.114Z,1.55
2023-04-19T13:06:45.861Z,1.40
2023-04-19T13:09:15.087Z,1.50
2023-04-19T13:11:43.102Z,1.30
2023-04-19T13:14:09.963Z,1.27
2023-04-19T13:16:43.516Z,1.20
2023-04-19T13:19:10.284Z,1.42
2023-04-19T13:21:37.186Z,1.38
2023-04-19T13:24:05.269Z,0.90
2023-04-19T13:26:33.592Z,1.25
2023-04-19T13:29:00.585Z,1.13
2023-04-19T13:31:29.781Z,1.02
2023-04-19T13:33:57.338Z,1.25
2023-04-19T13:36:24.628Z,1.00
2023-04-19T13:38:51.448Z,1.17
2023-04-19T13:41:19.494Z,1.17
2023-04-19T13:43:46.615Z,1.08
2023-04-19T13:46:14.399Z,1.00
2023-04-19T13:48:42.124Z,1.10
2023-04-19T13:51:09.040Z,1.08
2023-04-19T13:53:36.568Z,1.33
2023-04-19T13:56:03.913Z,0.90
2023-04-19T13:58:33.954Z,1.38
2023-04-19T14:01:00.910Z,1.10
2023-04-19T14:03:28.165Z,1.30
2023-04-19T14:05:55.272Z,0.90
2023-04-19T14:08:22.593Z,1.40
2023-04-19T14:10:50.626Z,1.30
2023-04-19T14:13:17.516Z,0.93
2023-04-19T14:15:44.537Z,1.70
2023-04-19T14:18:11.357Z,1.30
2023-04-19T14:20:38.218Z,1.00
2023-04-19T14:23:06.681Z,1.17
2023-04-19T14:25:33.453Z,1.03
2023-04-19T14:28:05.401Z,1.05
2023-04-19T14:30:33.403Z,1.10
2023-04-19T14:33:00.439Z,1.25
2023-04-19T14:35:27.852Z,1.00
2023-04-19T14:37:55.080Z,1.07
2023-04-19T14:40:22.086Z,1.00
2023-04-19T14:42:48.811Z,1.20
2023-04-19T14:45:15.814Z,0.95
2023-04-19T14:47:42.838Z,1.00
2023-04-19T14:50:10.251Z,0.90
2023-04-19T14:52:36.964Z,0.90
2023-04-19T14:55:04.786Z,0.90
2023-04-19T14:57:31.791Z,0.68
2023-04-19T14:59:58.703Z,0.70
2023-04-19T15:02:28.679Z,1.07
2023-04-19T15:04:56.866Z,1.10
2023-04-19T15:07:23.885Z,1.10
2023-04-19T15:09:51.452Z,1.00
2023-04-19T15:12:19.625Z,0.98
2023-04-19T15:14:46.321Z,1.20
2023-04-19T15:17:14.556Z,0.85
2023-04-19T15:19:41.932Z,1.52
2023-04-19T15:22:10.085Z,1.05
2023-04-19T15:24:36.938Z,1.17
2023-04-19T15:27:05.667Z,0.83
2023-04-19T15:29:32.486Z,0.80
2023-04-19T15:31:59.164Z,0.80
2023-04-19T15:34:27.672Z,0.63
2023-04-19T15:36:55.082Z,0.93
2023-04-19T15:42:14.562Z,0.90
2023-04-19T15:44:42.811Z,0.80
2023-04-19T15:47:12.746Z,0.90
2023-04-19T15:49:39.560Z,1.13
2023-04-19T15:52:08.849Z,0.93
2023-04-19T15:54:35.596Z,0.70
2023-04-19T15:57:06.046Z,1.20
2023-04-19T15:59:33.332Z,1.77
2023-04-19T16:02:01.169Z,1.10
2023-04-19T16:04:30.649Z,1.10
2023-04-19T16:06:58.001Z,1.00
2023-04-19T16:09:25.620Z,1.10
2023-04-19T16:11:53.929Z,0.52
2023-04-19T16:14:21.987Z,0.50
2023-04-19T16:16:49.028Z,0.53
2023-04-19T16:19:17.265Z,0.45
2023-04-19T16:21:45.635Z,0.60
2023-04-19T16:24:12.442Z,0.70
2023-04-19T16:26:39.154Z,0.65
2023-04-19T16:29:06.771Z,0.50
2023-04-19T16:31:34.968Z,0.32
2023-04-19T16:34:02.550Z,0.50
2023-04-19T16:36:29.583Z,0.50
2023-04-19T16:38:57.087Z,0.37
2023-04-19T16:41:23.777Z,0.30
2023-04-19T16:43:51.182Z,0.50
2023-04-19T16:46:18.430Z,0.50
2023-04-19T16:48:49.550Z,0.60
2023-04-19T16:51:16.407Z,0.55
2023-04-19T16:53:43.692Z,0.70
2023-04-19T16:56:12.293Z,0.77
2023-04-19T16:58:39.586Z,0.95
2023-04-19T17:03:59.413Z,0.90
2023-04-19T17:06:26.714Z,0.53
2023-04-19T17:08:55.194Z,0.70
2023-04-19T17:11:25.568Z,0.90
2023-04-19T17:13:54.685Z,0.75
2023-04-19T17:16:23.572Z,0.60
2023-04-19T17:18:50.591Z,0.93
2023-04-19T17:21:17.638Z,1.90
2023-04-19T17:23:45.902Z,1.20
2023-04-19T17:26:16.697Z,1.45
2023-04-19T17:28:46.841Z,1.20
2023-04-19T17:31:15.858Z,1.07
2023-04-19T17:34:08.314Z,1.08
2023-04-19T17:36:36.644Z,1.25
2023-04-19T17:39:05.531Z,1.30
2023-04-19T17:41:33.206Z,1.15
2023-04-19T17:44:02.820Z,1.50
2023-04-19T17:46:30.797Z,1.30
2023-04-19T17:48:57.628Z,1.75
2023-04-19T17:51:26.010Z,1.20
2023-04-19T17:53:53.606Z,1.17
2023-04-19T17:56:21.925Z,1.47
2023-04-19T17:58:52.252Z,1.52
2023-04-19T18:01:19.660Z,1.70
2023-04-19T18:03:51.998Z,1.52
2023-04-19T18:06:21.723Z,1.40
2023-04-19T18:08:48.993Z,1.30
2023-04-19T18:11:19.891Z,1.45
2023-04-19T18:13:48.817Z,1.42
2023-04-19T18:16:16.016Z,1.27
2023-04-19T18:18:45.826Z,1.90
2023-04-19T18:21:14.318Z,1.80
2023-04-19T18:23:43.784Z,1.90
2023-04-19T18:26:12.057Z,1.60
2023-04-19T18:28:39.894Z,1.83
2023-04-19T18:31:08.504Z,1.30
2023-04-19T18:33:36.978Z,1.40
2023-04-19T18:36:07.169Z,1.80
2023-04-19T18:38:34.938Z,1.92
2023-04-19T18:46:33.207Z,1.70
2023-04-19T18:49:00.301Z,1.48
2023-04-19T18:51:28.109Z,1.60
2023-04-19T18:53:55.682Z,1.67
2023-04-19T18:59:16.862Z,1.53
2023-04-19T19:01:47.099Z,1.40
2023-04-19T19:04:42.963Z,1.38
2023-04-19T19:07:34.363Z,1.38
2023-04-19T19:12:45.530Z,1.57
2023-04-19T19:15:16.283Z,1.48
2023-04-19T19:17:49.210Z,1.42
2023-04-19T19:20:25.168Z,1.40
2023-04-19T19:22:54.684Z,1.30
2023-04-19T19:25:24.201Z,1.10
2023-04-19T19:28:06.375Z,1.10
2023-04-19T19:30:37.764Z,1.17
2023-04-19T19:33:06.938Z,1.20
2023-04-19T19:35:40.065Z,1.02
2023-04-19T19:38:11.012Z,1.23
2023-04-19T19:41:11.129Z,1.05
2023-04-19T19:43:32.441Z,1.20
2023-04-19T19:46:08.427Z,1.10
2023-04-19T19:48:42.517Z,1.27
2023-04-19T19:53:47.215Z,1.10
2023-04-19T19:56:22.141Z,1.13
2023-04-19T19:58:52.217Z,1.48
2023-04-19T20:01:22.597Z,1.45
2023-04-19T20:03:51.332Z,1.20
2023-04-19T20:07:07.810Z,1.70
2023-04-19T20:09:09.197Z,1.38
2023-04-19T20:11:36.201Z,1.30
2023-04-19T20:14:03.958Z,1.08
2023-04-19T20:16:32.655Z,0.93
2023-04-19T20:18:59.827Z,1.05
2023-04-19T20:21:28.055Z,1.33
2023-04-19T20:23:55.898Z,1.35
2023-04-19T20:26:23.859Z,0.98
2023-04-19T20:28:52.839Z,1.50
2023-04-19T20:31:45.132Z,1.10
2023-04-19T20:34:14.046Z,0.98
2023-04-19T20:36:42.276Z,1.08
2023-04-19T20:39:13.868Z,1.20
2023-04-19T20:41:47.561Z,1.30
2023-04-19T20:44:17.139Z,1.20
2023-04-19T20:46:45.062Z,1.15
2023-04-19T20:49:13.068Z,1.45
2023-04-19T20:51:40.111Z,1.10
2023-04-19T20:54:07.524Z,1.37
2023-04-19T20:56:34.770Z,1.10
2023-04-19T20:59:02.134Z,1.10
2023-04-19T21:01:28.881Z,1.08
2023-04-19T21:03:57.565Z,1.30
2023-04-19T21:06:24.900Z,0.80
2023-04-19T21:08:51.831Z,1.17
2023-04-19T21:11:19.948Z,0.90
2023-04-19T21:13:47.013Z,1.05
2023-04-19T21:16:14.185Z,1.08
2023-04-19T21:18:41.079Z,1.30
2023-04-19T21:21:08.571Z,0.90
2023-04-19T21:23:36.131Z,1.40
2023-04-19T21:26:03.730Z,1.25
2023-04-19T21:28:30.541Z,0.75
2023-04-19T21:30:57.500Z,1.27
2023-04-19T21:33:24.752Z,1.20
2023-04-19T21:35:51.728Z,1.20
2023-04-19T21:38:19.349Z,1.10
2023-04-19T21:40:47.682Z,0.90
2023-04-19T21:43:17.127Z,1.00
2023-04-19T21:45:44.153Z,1.10
2023-04-19T21:48:10.966Z,1.00
2023-04-19T21:50:38.075Z,0.90
2023-04-19T21:53:05.033Z,0.80
2023-04-19T21:55:31.906Z,1.00
2023-04-19T21:57:59.176Z,1.20
2023-04-19T22:00:27.753Z,0.70
2023-04-19T22:02:54.597Z,0.68
2023-04-19T22:05:22.115Z,0.85
2023-04-19T22:07:49.293Z,0.83
2023-04-19T22:10:18.466Z,1.13
2023-04-19T22:12:57.410Z,1.00
2023-04-19T22:15:27.339Z,0.80
2023-04-19T22:17:54.284Z,0.90
2023-04-19T22:20:22.194Z,1.00
2023-04-19T22:22:52.765Z,0.75
2023-04-19T22:25:21.416Z,1.27
2023-04-19T22:27:49.148Z,0.77
2023-04-19T22:30:16.825Z,1.10
2023-04-19T22:32:43.828Z,1.00
2023-04-19T22:35:10.649Z,1.10
2023-04-19T22:37:37.627Z,1.15
2023-04-19T22:40:05.016Z,0.80
2023-04-19T22:42:31.845Z,1.35
2023-04-19T22:44:58.734Z,1.07
2023-04-19T22:47:27.302Z,1.13
2023-04-19T22:49:54.752Z,1.02
2023-04-19T22:52:22.223Z,1.15
2023-04-19T22:54:49.089Z,1.23
2023-04-19T22:57:17.032Z,0.97
2023-04-19T22:59:43.864Z,1.55
2023-04-19T23:02:36.408Z,1.10
2023-04-19T23:05:08.764Z,1.17
2023-04-19T23:07:35.723Z,1.10
2023-04-19T23:10:02.676Z,1.43
2023-04-19T23:12:29.534Z,1.17
2023-04-19T23:14:56.432Z,1.40
2023-04-19T23:17:23.393Z,0.98
2023-04-19T23:19:50.197Z,1.10
2023-04-19T23:22:17.087Z,1.10
2023-04-19T23:24:44.026Z,1.30
2023-04-19T23:27:10.725Z,1.23
2023-04-19T23:29:38.091Z,1.00
2023-04-19T23:32:05.728Z,1.23
2023-04-19T23:34:32.616Z,1.00
2023-04-19T23:37:00.920Z,1.20
2023-04-19T23:39:27.652Z,1.50
2023-04-19T23:41:57.854Z,1.00
2023-04-19T23:44:24.874Z,1.25
2023-04-19T23:46:53.239Z,1.10
2023-04-19T23:49:20.716Z,1.00
2023-04-19T23:51:49.380Z,1.35
2023-04-19T23:54:17.476Z,1.23
2023-04-19T23:56:44.234Z,1.20
2023-04-19T23:59:11.282Z,1.27
